sensor_id;sensor_type;location;lat;lon;timestamp;temperature;humidity
57552;DHT22;43379;48.160;14.036;2023-04-24T00:00:03;15.70;99.90
57552;DHT22;43379;48.160;14.036;2023-04-24T00:02:34;15.70;99.90
57552;DHT22;43379;48.160;14.036;2023-04-24T00:05:04;15.70;99.90
57552;DHT22;43379;48.160;14.036;2023-04-24T00:07:30;15.60;99.90
57552;DHT22;43379;48.160;14.036;2023-04-24T00:09:55;15.50;99.90
57552;DHT22;43379;48.160;14.036;2023-04-24T00:12:25;15.40;99.90
57552;DHT22;43379;48.160;14.036;2023-04-24T00:14:51;15.40;99.90
57552;DHT22;43379;48.160;14.036;2023-04-24T00:17:16;15.30;99.90
57552;DHT22;43379;48.160;14.036;2023-04-24T00:19:45;15.30;99.90
57552;DHT22;43379;48.160;14.036;2023-04-24T00:22:11;15.30;99.90
57552;DHT22;43379;48.160;14.036;2023-04-24T00:24:39;15.20;99.90
57552;DHT22;43379;48.160;14.036;2023-04-24T00:27:05;15.10;99.90
57552;DHT22;43379;48.160;14.036;2023-04-24T00:29:30;15.10;99.90
57552;DHT22;43379;48.160;14.036;2023-04-24T00:31:56;15.00;99.90
57552;DHT22;43379;48.160;14.036;2023-04-24T00:34:22;15.00;99.90
57552;DHT22;43379;48.160;14.036;2023-04-24T00:36:48;14.90;99.90
57552;DHT22;43379;48.160;14.036;2023-04-24T00:39:20;14.90;99.90
57552;DHT22;43379;48.160;14.036;2023-04-24T00:41:46;14.90;99.90
57552;DHT22;43379;48.160;14.036;2023-04-24T00:44:13;14.90;99.90
57552;DHT22;43379;48.160;14.036;2023-04-24T00:46:39;14.80;99.90
57552;DHT22;43379;48.160;14.036;2023-04-24T00:49:05;14.80;99.90
57552;DHT22;43379;48.160;14.036;2023-04-24T00:51:32;14.70;99.90
57552;DHT22;43379;48.160;14.036;2023-04-24T00:53:58;14.70;99.90
57552;DHT22;43379;48.160;14.036;2023-04-24T00:56:24;14.70;99.90
57552;DHT22;43379;48.160;14.036;2023-04-24T00:58:50;14.70;99.90
57552;DHT22;43379;48.160;14.036;2023-04-24T01:01:16;14.60;99.90
57552;DHT22;43379;48.160;14.036;2023-04-24T01:03:42;14.60;99.90
57552;DHT22;43379;48.160;14.036;2023-04-24T01:06:09;14.60;99.90
57552;DHT22;43379;48.160;14.036;2023-04-24T01:08:36;14.60;99.90
57552;DHT22;43379;48.160;14.036;2023-04-24T01:11:03;14.50;99.90
57552;DHT22;43379;48.160;14.036;2023-04-24T01:13:31;14.50;99.90
57552;DHT22;43379;48.160;14.036;2023-04-24T01:15:57;14.50;99.90
57552;DHT22;43379;48.160;14.036;2023-04-24T01:18:23;14.50;99.90
57552;DHT22;43379;48.160;14.036;2023-04-24T01:20:53;14.50;99.90
57552;DHT22;43379;48.160;14.036;2023-04-24T01:23:20;14.50;99.90
57552;DHT22;43379;48.160;14.036;2023-04-24T01:25:45;14.50;99.90
57552;DHT22;43379;48.160;14.036;2023-04-24T01:28:11;14.50;99.90
57552;DHT22;43379;48.160;14.036;2023-04-24T01:30:39;14.40;99.90
57552;DHT22;43379;48.160;14.036;2023-04-24T01:33:05;14.40;99.90
57552;DHT22;43379;48.160;14.036;2023-04-24T01:35:31;14.40;99.90
57552;DHT22;43379;48.160;14.036;2023-04-24T01:37:57;14.40;99.90
57552;DHT22;43379;48.160;14.036;2023-04-24T01:40:23;14.40;99.90
57552;DHT22;43379;48.160;14.036;2023-04-24T01:42:48;14.40;99.90
57552;DHT22;43379;48.160;14.036;2023-04-24T01:45:14;14.40;99.90
57552;DHT22;43379;48.160;14.036;2023-04-24T01:47:40;14.30;99.90
57552;DHT22;43379;48.160;14.036;2023-04-24T01:50:06;14.40;99.90
57552;DHT22;43379;48.160;14.036;2023-04-24T01:52:32;14.30;99.90
57552;DHT22;43379;48.160;14.036;2023-04-24T01:55:03;14.30;99.90
57552;DHT22;43379;48.160;14.036;2023-04-24T01:57:30;14.30;99.90
57552;DHT22;43379;48.160;14.036;2023-04-24T01:59:56;14.30;99.90
57552;DHT22;43379;48.160;14.036;2023-04-24T02:02:22;14.40;99.90
57552;DHT22;43379;48.160;14.036;2023-04-24T02:04:50;14.30;99.90
57552;DHT22;43379;48.160;14.036;2023-04-24T02:07:15;14.30;99.90
57552;DHT22;43379;48.160;14.036;2023-04-24T02:09:41;14.30;99.90
57552;DHT22;43379;48.160;14.036;2023-04-24T02:12:07;14.30;99.90
57552;DHT22;43379;48.160;14.036;2023-04-24T02:14:32;14.30;99.90
57552;DHT22;43379;48.160;14.036;2023-04-24T02:16:58;14.40;99.90
57552;DHT22;43379;48.160;14.036;2023-04-24T02:19:24;14.30;99.90
57552;DHT22;43379;48.160;14.036;2023-04-24T02:21:49;14.30;99.90
57552;DHT22;43379;48.160;14.036;2023-04-24T02:24:15;14.30;99.90
57552;DHT22;43379;48.160;14.036;2023-04-24T02:26:41;14.30;99.90
57552;DHT22;43379;48.160;14.036;2023-04-24T02:29:07;14.30;99.90
57552;DHT22;43379;48.160;14.036;2023-04-24T02:31:33;14.30;99.90
57552;DHT22;43379;48.160;14.036;2023-04-24T02:33:59;14.20;99.90
57552;DHT22;43379;48.160;14.036;2023-04-24T02:36:25;14.20;99.90
57552;DHT22;43379;48.160;14.036;2023-04-24T02:38:50;14.20;99.90
57552;DHT22;43379;48.160;14.036;2023-04-24T02:41:16;14.20;99.90
57552;DHT22;43379;48.160;14.036;2023-04-24T02:43:41;14.10;99.90
57552;DHT22;43379;48.160;14.036;2023-04-24T02:46:07;14.20;99.90
57552;DHT22;43379;48.160;14.036;2023-04-24T02:48:33;14.10;99.90
57552;DHT22;43379;48.160;14.036;2023-04-24T02:50:58;14.20;99.90
57552;DHT22;43379;48.160;14.036;2023-04-24T02:53:24;14.20;99.90
57552;DHT22;43379;48.160;14.036;2023-04-24T02:55:50;14.30;99.90
57552;DHT22;43379;48.160;14.036;2023-04-24T02:58:15;14.20;99.90
57552;DHT22;43379;48.160;14.036;2023-04-24T03:00:42;14.20;99.90
57552;DHT22;43379;48.160;14.036;2023-04-24T03:03:09;14.20;99.90
57552;DHT22;43379;48.160;14.036;2023-04-24T03:05:34;14.20;99.90
57552;DHT22;43379;48.160;14.036;2023-04-24T03:08:00;14.20;99.90
57552;DHT22;43379;48.160;14.036;2023-04-24T03:10:26;14.20;99.90
57552;DHT22;43379;48.160;14.036;2023-04-24T03:12:51;14.20;99.90
57552;DHT22;43379;48.160;14.036;2023-04-24T03:15:17;14.10;99.90
57552;DHT22;43379;48.160;14.036;2023-04-24T03:17:43;14.10;99.90
57552;DHT22;43379;48.160;14.036;2023-04-24T03:20:09;14.20;99.90
57552;DHT22;43379;48.160;14.036;2023-04-24T03:22:35;14.20;99.90
57552;DHT22;43379;48.160;14.036;2023-04-24T03:25:01;14.20;99.90
57552;DHT22;43379;48.160;14.036;2023-04-24T03:27:27;14.20;99.90
57552;DHT22;43379;48.160;14.036;2023-04-24T03:29:52;14.20;99.90
57552;DHT22;43379;48.160;14.036;2023-04-24T03:32:21;14.20;99.90
57552;DHT22;43379;48.160;14.036;2023-04-24T03:34:48;14.20;99.90
57552;DHT22;43379;48.160;14.036;2023-04-24T03:37:14;14.20;99.90
57552;DHT22;43379;48.160;14.036;2023-04-24T03:39:39;14.20;99.90
57552;DHT22;43379;48.160;14.036;2023-04-24T03:42:05;14.20;99.90
57552;DHT22;43379;48.160;14.036;2023-04-24T03:44:30;14.20;99.90
57552;DHT22;43379;48.160;14.036;2023-04-24T03:46:58;14.20;99.90
57552;DHT22;43379;48.160;14.036;2023-04-24T03:49:23;14.20;99.90
57552;DHT22;43379;48.160;14.036;2023-04-24T03:51:49;14.20;99.90
57552;DHT22;43379;48.160;14.036;2023-04-24T03:54:15;14.10;99.90
57552;DHT22;43379;48.160;14.036;2023-04-24T03:56:40;14.10;99.90
57552;DHT22;43379;48.160;14.036;2023-04-24T03:59:06;14.10;99.90
57552;DHT22;43379;48.160;14.036;2023-04-24T04:01:32;14.10;99.90
57552;DHT22;43379;48.160;14.036;2023-04-24T04:03:57;14.20;99.90
57552;DHT22;43379;48.160;14.036;2023-04-24T04:06:23;14.20;99.90
57552;DHT22;43379;48.160;14.036;2023-04-24T04:08:48;14.10;99.90
57552;DHT22;43379;48.160;14.036;2023-04-24T04:11:14;14.10;99.90
57552;DHT22;43379;48.160;14.036;2023-04-24T04:13:40;14.00;99.90
57552;DHT22;43379;48.160;14.036;2023-04-24T04:16:06;14.00;99.90
57552;DHT22;43379;48.160;14.036;2023-04-24T04:18:31;14.00;99.90
57552;DHT22;43379;48.160;14.036;2023-04-24T04:20:57;14.00;99.90
57552;DHT22;43379;48.160;14.036;2023-04-24T04:23:23;14.00;99.90
57552;DHT22;43379;48.160;14.036;2023-04-24T04:25:48;14.00;99.90
57552;DHT22;43379;48.160;14.036;2023-04-24T04:28:15;13.90;99.90
57552;DHT22;43379;48.160;14.036;2023-04-24T04:30:41;13.90;99.90
57552;DHT22;43379;48.160;14.036;2023-04-24T04:33:06;13.90;99.90
57552;DHT22;43379;48.160;14.036;2023-04-24T04:35:33;13.80;99.90
57552;DHT22;43379;48.160;14.036;2023-04-24T04:37:59;13.80;99.90
57552;DHT22;43379;48.160;14.036;2023-04-24T04:40:26;13.90;99.90
57552;DHT22;43379;48.160;14.036;2023-04-24T04:42:53;13.80;99.90
57552;DHT22;43379;48.160;14.036;2023-04-24T04:45:19;13.80;99.90
57552;DHT22;43379;48.160;14.036;2023-04-24T04:47:46;13.80;99.90
57552;DHT22;43379;48.160;14.036;2023-04-24T04:50:11;13.70;99.90
57552;DHT22;43379;48.160;14.036;2023-04-24T04:52:37;13.70;99.90
57552;DHT22;43379;48.160;14.036;2023-04-24T04:55:03;13.70;99.90
57552;DHT22;43379;48.160;14.036;2023-04-24T04:57:29;13.70;99.90
57552;DHT22;43379;48.160;14.036;2023-04-24T04:59:55;13.70;99.90
57552;DHT22;43379;48.160;14.036;2023-04-24T05:02:21;13.70;99.90
57552;DHT22;43379;48.160;14.036;2023-04-24T05:04:46;13.60;99.90
57552;DHT22;43379;48.160;14.036;2023-04-24T05:07:12;13.70;99.90
57552;DHT22;43379;48.160;14.036;2023-04-24T05:09:38;13.70;99.90
57552;DHT22;43379;48.160;14.036;2023-04-24T05:12:04;13.70;99.90
57552;DHT22;43379;48.160;14.036;2023-04-24T05:14:29;13.70;99.90
57552;DHT22;43379;48.160;14.036;2023-04-24T05:16:55;13.70;99.90
57552;DHT22;43379;48.160;14.036;2023-04-24T05:19:21;13.70;99.90
57552;DHT22;43379;48.160;14.036;2023-04-24T05:21:46;13.70;99.90
57552;DHT22;43379;48.160;14.036;2023-04-24T05:24:12;13.70;99.90
57552;DHT22;43379;48.160;14.036;2023-04-24T05:26:37;13.70;99.90
57552;DHT22;43379;48.160;14.036;2023-04-24T05:29:03;13.60;99.90
57552;DHT22;43379;48.160;14.036;2023-04-24T05:31:29;13.60;99.90
57552;DHT22;43379;48.160;14.036;2023-04-24T05:33:55;13.60;99.90
57552;DHT22;43379;48.160;14.036;2023-04-24T05:36:20;13.60;99.90
57552;DHT22;43379;48.160;14.036;2023-04-24T05:38:46;13.60;99.90
57552;DHT22;43379;48.160;14.036;2023-04-24T05:41:12;13.50;99.90
57552;DHT22;43379;48.160;14.036;2023-04-24T05:43:37;13.60;99.90
57552;DHT22;43379;48.160;14.036;2023-04-24T05:46:03;13.60;99.90
57552;DHT22;43379;48.160;14.036;2023-04-24T05:48:29;13.50;99.90
57552;DHT22;43379;48.160;14.036;2023-04-24T05:50:55;13.50;99.90
57552;DHT22;43379;48.160;14.036;2023-04-24T05:53:20;13.50;99.90
57552;DHT22;43379;48.160;14.036;2023-04-24T05:55:47;13.40;99.90
57552;DHT22;43379;48.160;14.036;2023-04-24T05:58:12;13.50;99.90
57552;DHT22;43379;48.160;14.036;2023-04-24T06:00:38;13.50;99.90
57552;DHT22;43379;48.160;14.036;2023-04-24T06:03:08;13.60;99.90
57552;DHT22;43379;48.160;14.036;2023-04-24T06:05:34;13.60;99.90
57552;DHT22;43379;48.160;14.036;2023-04-24T06:08:00;13.60;99.90
57552;DHT22;43379;48.160;14.036;2023-04-24T06:10:26;13.60;99.90
57552;DHT22;43379;48.160;14.036;2023-04-24T06:12:51;13.60;99.90
57552;DHT22;43379;48.160;14.036;2023-04-24T06:15:17;13.60;99.90
57552;DHT22;43379;48.160;14.036;2023-04-24T06:17:42;13.50;99.90
57552;DHT22;43379;48.160;14.036;2023-04-24T06:20:08;13.60;99.90
57552;DHT22;43379;48.160;14.036;2023-04-24T06:22:36;13.50;99.90
57552;DHT22;43379;48.160;14.036;2023-04-24T06:25:02;13.50;99.90
57552;DHT22;43379;48.160;14.036;2023-04-24T06:27:28;13.50;99.90
57552;DHT22;43379;48.160;14.036;2023-04-24T06:29:54;13.50;99.90
57552;DHT22;43379;48.160;14.036;2023-04-24T06:32:22;13.50;99.90
57552;DHT22;43379;48.160;14.036;2023-04-24T06:34:48;13.60;99.90
57552;DHT22;43379;48.160;14.036;2023-04-24T06:37:14;13.50;99.90
57552;DHT22;43379;48.160;14.036;2023-04-24T06:39:40;13.60;99.90
57552;DHT22;43379;48.160;14.036;2023-04-24T06:42:06;13.60;99.90
57552;DHT22;43379;48.160;14.036;2023-04-24T06:44:33;13.60;99.90
57552;DHT22;43379;48.160;14.036;2023-04-24T06:47:03;13.60;99.90
57552;DHT22;43379;48.160;14.036;2023-04-24T06:49:28;13.60;99.90
57552;DHT22;43379;48.160;14.036;2023-04-24T06:51:54;13.60;99.90
57552;DHT22;43379;48.160;14.036;2023-04-24T06:54:20;13.70;99.90
57552;DHT22;43379;48.160;14.036;2023-04-24T06:56:45;13.70;99.90
57552;DHT22;43379;48.160;14.036;2023-04-24T06:59:13;13.70;99.90
57552;DHT22;43379;48.160;14.036;2023-04-24T07:01:38;13.70;99.90
57552;DHT22;43379;48.160;14.036;2023-04-24T07:04:04;13.80;99.90
57552;DHT22;43379;48.160;14.036;2023-04-24T07:06:29;13.80;99.90
57552;DHT22;43379;48.160;14.036;2023-04-24T07:08:57;13.80;99.90
57552;DHT22;43379;48.160;14.036;2023-04-24T07:11:23;13.80;99.90
57552;DHT22;43379;48.160;14.036;2023-04-24T07:13:49;13.90;99.90
57552;DHT22;43379;48.160;14.036;2023-04-24T07:16:14;13.90;99.90
57552;DHT22;43379;48.160;14.036;2023-04-24T07:18:40;14.00;99.90
57552;DHT22;43379;48.160;14.036;2023-04-24T07:21:05;14.00;99.90
57552;DHT22;43379;48.160;14.036;2023-04-24T07:23:32;14.00;99.90
57552;DHT22;43379;48.160;14.036;2023-04-24T07:25:58;14.10;99.90
57552;DHT22;43379;48.160;14.036;2023-04-24T07:28:23;14.10;99.90
57552;DHT22;43379;48.160;14.036;2023-04-24T07:30:50;14.10;99.90
57552;DHT22;43379;48.160;14.036;2023-04-24T07:33:15;14.20;99.90
57552;DHT22;43379;48.160;14.036;2023-04-24T07:35:41;14.20;99.90
57552;DHT22;43379;48.160;14.036;2023-04-24T07:38:07;14.30;99.90
57552;DHT22;43379;48.160;14.036;2023-04-24T07:40:32;14.30;99.90
57552;DHT22;43379;48.160;14.036;2023-04-24T07:42:58;14.30;99.90
57552;DHT22;43379;48.160;14.036;2023-04-24T07:45:25;14.30;99.90
57552;DHT22;43379;48.160;14.036;2023-04-24T07:47:53;14.20;99.90
57552;DHT22;43379;48.160;14.036;2023-04-24T07:50:19;14.20;99.90
57552;DHT22;43379;48.160;14.036;2023-04-24T07:52:45;14.10;99.90
57552;DHT22;43379;48.160;14.036;2023-04-24T07:55:10;14.20;99.90
57552;DHT22;43379;48.160;14.036;2023-04-24T07:57:36;14.20;99.90
57552;DHT22;43379;48.160;14.036;2023-04-24T08:00:03;14.20;99.90
57552;DHT22;43379;48.160;14.036;2023-04-24T08:02:29;14.20;99.90
57552;DHT22;43379;48.160;14.036;2023-04-24T08:04:55;14.30;99.90
57552;DHT22;43379;48.160;14.036;2023-04-24T08:07:21;14.30;99.90
57552;DHT22;43379;48.160;14.036;2023-04-24T08:09:47;14.30;99.90
57552;DHT22;43379;48.160;14.036;2023-04-24T08:12:12;14.40;99.90
57552;DHT22;43379;48.160;14.036;2023-04-24T08:14:38;14.40;99.90
57552;DHT22;43379;48.160;14.036;2023-04-24T08:17:04;14.40;99.90
57552;DHT22;43379;48.160;14.036;2023-04-24T08:19:29;14.40;99.90
57552;DHT22;43379;48.160;14.036;2023-04-24T08:21:55;14.50;99.90
57552;DHT22;43379;48.160;14.036;2023-04-24T08:24:21;14.50;99.90
57552;DHT22;43379;48.160;14.036;2023-04-24T08:26:47;14.40;99.90
57552;DHT22;43379;48.160;14.036;2023-04-24T08:29:17;14.50;99.90
57552;DHT22;43379;48.160;14.036;2023-04-24T08:31:43;14.50;99.90
57552;DHT22;43379;48.160;14.036;2023-04-24T08:34:09;14.50;99.90
57552;DHT22;43379;48.160;14.036;2023-04-24T08:36:35;14.60;99.90
57552;DHT22;43379;48.160;14.036;2023-04-24T08:39:01;14.70;99.90
57552;DHT22;43379;48.160;14.036;2023-04-24T08:41:27;14.70;99.90
57552;DHT22;43379;48.160;14.036;2023-04-24T08:43:53;14.70;99.90
57552;DHT22;43379;48.160;14.036;2023-04-24T08:46:20;14.70;99.90
57552;DHT22;43379;48.160;14.036;2023-04-24T08:48:48;14.70;99.90
57552;DHT22;43379;48.160;14.036;2023-04-24T08:51:15;14.80;99.90
57552;DHT22;43379;48.160;14.036;2023-04-24T08:53:40;14.80;99.90
57552;DHT22;43379;48.160;14.036;2023-04-24T08:56:06;14.90;99.90
57552;DHT22;43379;48.160;14.036;2023-04-24T08:58:33;14.90;99.90
57552;DHT22;43379;48.160;14.036;2023-04-24T09:00:59;14.90;99.90
57552;DHT22;43379;48.160;14.036;2023-04-24T09:03:27;15.00;99.90
57552;DHT22;43379;48.160;14.036;2023-04-24T09:05:55;15.00;99.90
57552;DHT22;43379;48.160;14.036;2023-04-24T09:08:24;15.00;99.90
57552;DHT22;43379;48.160;14.036;2023-04-24T09:10:50;15.00;99.90
57552;DHT22;43379;48.160;14.036;2023-04-24T09:13:16;15.00;99.90
57552;DHT22;43379;48.160;14.036;2023-04-24T09:15:42;15.10;99.90
57552;DHT22;43379;48.160;14.036;2023-04-24T09:18:08;15.10;99.90
57552;DHT22;43379;48.160;14.036;2023-04-24T09:20:34;15.00;99.90
57552;DHT22;43379;48.160;14.036;2023-04-24T09:23:01;15.00;99.90
57552;DHT22;43379;48.160;14.036;2023-04-24T09:25:34;15.00;99.90
57552;DHT22;43379;48.160;14.036;2023-04-24T09:28:02;15.10;99.90
57552;DHT22;43379;48.160;14.036;2023-04-24T09:30:28;15.10;99.90
57552;DHT22;43379;48.160;14.036;2023-04-24T09:33:10;15.20;99.90
57552;DHT22;43379;48.160;14.036;2023-04-24T09:35:37;15.30;99.90
57552;DHT22;43379;48.160;14.036;2023-04-24T09:38:05;15.40;99.90
57552;DHT22;43379;48.160;14.036;2023-04-24T09:40:34;15.50;99.90
57552;DHT22;43379;48.160;14.036;2023-04-24T09:43:00;15.60;99.90
57552;DHT22;43379;48.160;14.036;2023-04-24T09:45:35;15.70;99.90
57552;DHT22;43379;48.160;14.036;2023-04-24T09:48:01;15.70;99.90
57552;DHT22;43379;48.160;14.036;2023-04-24T09:50:29;15.70;99.90
57552;DHT22;43379;48.160;14.036;2023-04-24T09:52:58;15.80;99.90
57552;DHT22;43379;48.160;14.036;2023-04-24T09:55:24;15.80;99.90
57552;DHT22;43379;48.160;14.036;2023-04-24T09:58:00;16.00;99.90
57552;DHT22;43379;48.160;14.036;2023-04-24T10:00:29;16.00;99.90
57552;DHT22;43379;48.160;14.036;2023-04-24T10:03:00;16.10;99.90
57552;DHT22;43379;48.160;14.036;2023-04-24T10:05:29;16.20;99.90
57552;DHT22;43379;48.160;14.036;2023-04-24T10:08:02;16.40;99.90
57552;DHT22;43379;48.160;14.036;2023-04-24T10:10:29;16.40;99.90
57552;DHT22;43379;48.160;14.036;2023-04-24T10:12:55;16.50;99.90
57552;DHT22;43379;48.160;14.036;2023-04-24T10:15:22;16.50;99.90
57552;DHT22;43379;48.160;14.036;2023-04-24T10:17:49;16.60;99.90
57552;DHT22;43379;48.160;14.036;2023-04-24T10:20:24;16.60;99.90
57552;DHT22;43379;48.160;14.036;2023-04-24T10:22:53;16.60;99.90
57552;DHT22;43379;48.160;14.036;2023-04-24T10:25:21;16.70;99.90
57552;DHT22;43379;48.160;14.036;2023-04-24T10:27:48;16.70;99.90
57552;DHT22;43379;48.160;14.036;2023-04-24T10:30:15;16.60;99.90
57552;DHT22;43379;48.160;14.036;2023-04-24T10:32:40;16.60;99.90
57552;DHT22;43379;48.160;14.036;2023-04-24T10:35:11;16.60;99.90
57552;DHT22;43379;48.160;14.036;2023-04-24T10:37:48;16.80;99.90
57552;DHT22;43379;48.160;14.036;2023-04-24T10:40:19;17.00;99.90
57552;DHT22;43379;48.160;14.036;2023-04-24T10:42:52;17.00;99.90
57552;DHT22;43379;48.160;14.036;2023-04-24T10:45:22;17.00;99.90
57552;DHT22;43379;48.160;14.036;2023-04-24T10:48:17;17.00;99.90
57552;DHT22;43379;48.160;14.036;2023-04-24T10:50:48;17.00;99.90
57552;DHT22;43379;48.160;14.036;2023-04-24T10:53:18;17.00;99.90
57552;DHT22;43379;48.160;14.036;2023-04-24T10:56:06;16.90;99.90
57552;DHT22;43379;48.160;14.036;2023-04-24T10:58:40;16.90;99.90
57552;DHT22;43379;48.160;14.036;2023-04-24T11:01:06;16.90;99.90
57552;DHT22;43379;48.160;14.036;2023-04-24T11:03:34;17.00;99.90
57552;DHT22;43379;48.160;14.036;2023-04-24T11:06:05;17.10;99.90
57552;DHT22;43379;48.160;14.036;2023-04-24T11:08:38;17.20;99.90
57552;DHT22;43379;48.160;14.036;2023-04-24T11:11:17;17.30;99.90
57552;DHT22;43379;48.160;14.036;2023-04-24T11:16:36;17.80;99.90
57552;DHT22;43379;48.160;14.036;2023-04-24T11:21:43;18.20;99.90
57552;DHT22;43379;48.160;14.036;2023-04-24T11:35:02;18.90;99.90
57552;DHT22;43379;48.160;14.036;2023-04-24T11:37:37;18.90;99.90
57552;DHT22;43379;48.160;14.036;2023-04-24T11:40:04;19.00;99.90
57552;DHT22;43379;48.160;14.036;2023-04-24T11:42:34;19.10;99.90
57552;DHT22;43379;48.160;14.036;2023-04-24T11:45:01;19.10;99.90
57552;DHT22;43379;48.160;14.036;2023-04-24T11:47:28;19.20;99.90
57552;DHT22;43379;48.160;14.036;2023-04-24T11:49:54;19.30;99.90
57552;DHT22;43379;48.160;14.036;2023-04-24T11:52:20;19.20;99.90
57552;DHT22;43379;48.160;14.036;2023-04-24T11:54:50;19.10;99.90
57552;DHT22;43379;48.160;14.036;2023-04-24T11:57:16;18.90;99.90
57552;DHT22;43379;48.160;14.036;2023-04-24T11:59:42;18.50;99.90
57552;DHT22;43379;48.160;14.036;2023-04-24T12:02:08;18.30;99.90
57552;DHT22;43379;48.160;14.036;2023-04-24T12:04:40;18.10;99.90
57552;DHT22;43379;48.160;14.036;2023-04-24T12:07:09;17.60;99.90
57552;DHT22;43379;48.160;14.036;2023-04-24T12:09:45;17.20;99.90
57552;DHT22;43379;48.160;14.036;2023-04-24T12:12:16;16.80;99.90
57552;DHT22;43379;48.160;14.036;2023-04-24T12:14:55;16.50;99.90
57552;DHT22;43379;48.160;14.036;2023-04-24T12:17:31;16.10;99.90
57552;DHT22;43379;48.160;14.036;2023-04-24T12:19:59;15.90;99.90
57552;DHT22;43379;48.160;14.036;2023-04-24T12:22:25;15.60;99.90
57552;DHT22;43379;48.160;14.036;2023-04-24T12:24:59;15.40;99.90
57552;DHT22;43379;48.160;14.036;2023-04-24T12:27:25;15.20;99.90
57552;DHT22;43379;48.160;14.036;2023-04-24T12:30:01;15.10;99.90
57552;DHT22;43379;48.160;14.036;2023-04-24T12:32:27;14.90;99.90
57552;DHT22;43379;48.160;14.036;2023-04-24T12:34:54;14.80;99.90
57552;DHT22;43379;48.160;14.036;2023-04-24T12:37:22;14.80;99.90
57552;DHT22;43379;48.160;14.036;2023-04-24T12:40:07;14.80;99.90
57552;DHT22;43379;48.160;14.036;2023-04-24T12:42:33;14.80;99.90
57552;DHT22;43379;48.160;14.036;2023-04-24T12:45:01;14.80;99.90
57552;DHT22;43379;48.160;14.036;2023-04-24T12:47:27;14.80;99.90
57552;DHT22;43379;48.160;14.036;2023-04-24T12:49:53;14.80;99.90
57552;DHT22;43379;48.160;14.036;2023-04-24T12:52:21;14.80;99.90
57552;DHT22;43379;48.160;14.036;2023-04-24T12:54:47;14.80;99.90
57552;DHT22;43379;48.160;14.036;2023-04-24T12:57:12;14.80;99.90
57552;DHT22;43379;48.160;14.036;2023-04-24T12:59:38;14.90;99.90
57552;DHT22;43379;48.160;14.036;2023-04-24T13:02:05;15.00;99.90
57552;DHT22;43379;48.160;14.036;2023-04-24T13:04:31;15.20;99.90
57552;DHT22;43379;48.160;14.036;2023-04-24T13:06:57;15.40;99.90
57552;DHT22;43379;48.160;14.036;2023-04-24T13:09:23;15.50;99.90
57552;DHT22;43379;48.160;14.036;2023-04-24T13:11:49;15.70;99.90
57552;DHT22;43379;48.160;14.036;2023-04-24T13:14:15;15.80;99.90
57552;DHT22;43379;48.160;14.036;2023-04-24T13:16:41;16.00;99.90
57552;DHT22;43379;48.160;14.036;2023-04-24T13:19:06;16.00;99.90
57552;DHT22;43379;48.160;14.036;2023-04-24T13:21:32;16.00;99.90
57552;DHT22;43379;48.160;14.036;2023-04-24T13:23:58;16.10;99.90
57552;DHT22;43379;48.160;14.036;2023-04-24T13:26:25;16.20;99.90
57552;DHT22;43379;48.160;14.036;2023-04-24T13:28:50;16.20;99.90
57552;DHT22;43379;48.160;14.036;2023-04-24T13:31:16;16.40;99.90
57552;DHT22;43379;48.160;14.036;2023-04-24T13:33:42;16.50;99.90
57552;DHT22;43379;48.160;14.036;2023-04-24T13:36:08;16.60;99.90
57552;DHT22;43379;48.160;14.036;2023-04-24T13:38:34;16.60;99.90
57552;DHT22;43379;48.160;14.036;2023-04-24T13:41:00;16.60;99.90
57552;DHT22;43379;48.160;14.036;2023-04-24T13:43:26;16.60;99.90
57552;DHT22;43379;48.160;14.036;2023-04-24T13:45:52;16.60;99.90
57552;DHT22;43379;48.160;14.036;2023-04-24T13:48:17;16.40;99.90
57552;DHT22;43379;48.160;14.036;2023-04-24T13:50:43;16.30;99.90
57552;DHT22;43379;48.160;14.036;2023-04-24T13:53:10;16.20;99.90
57552;DHT22;43379;48.160;14.036;2023-04-24T13:55:35;16.20;99.90
57552;DHT22;43379;48.160;14.036;2023-04-24T13:58:02;16.20;99.90
57552;DHT22;43379;48.160;14.036;2023-04-24T14:00:28;16.30;99.90
57552;DHT22;43379;48.160;14.036;2023-04-24T14:02:53;16.40;99.90
57552;DHT22;43379;48.160;14.036;2023-04-24T14:05:19;16.40;99.90
57552;DHT22;43379;48.160;14.036;2023-04-24T14:07:47;16.50;99.90
57552;DHT22;43379;48.160;14.036;2023-04-24T14:10:12;16.50;99.90
57552;DHT22;43379;48.160;14.036;2023-04-24T14:12:38;16.50;99.90
57552;DHT22;43379;48.160;14.036;2023-04-24T14:15:04;16.40;99.90
57552;DHT22;43379;48.160;14.036;2023-04-24T14:17:30;16.40;99.90
57552;DHT22;43379;48.160;14.036;2023-04-24T14:19:56;16.30;99.90
57552;DHT22;43379;48.160;14.036;2023-04-24T14:22:22;16.20;99.90
57552;DHT22;43379;48.160;14.036;2023-04-24T14:24:48;16.00;99.90
57552;DHT22;43379;48.160;14.036;2023-04-24T14:27:14;15.90;99.90
57552;DHT22;43379;48.160;14.036;2023-04-24T14:29:39;15.90;99.90
57552;DHT22;43379;48.160;14.036;2023-04-24T14:32:05;15.90;99.90
57552;DHT22;43379;48.160;14.036;2023-04-24T14:34:31;15.90;99.90
57552;DHT22;43379;48.160;14.036;2023-04-24T14:36:57;15.80;99.90
57552;DHT22;43379;48.160;14.036;2023-04-24T14:39:24;15.70;99.90
57552;DHT22;43379;48.160;14.036;2023-04-24T14:41:49;15.60;99.90
57552;DHT22;43379;48.160;14.036;2023-04-24T14:44:15;15.60;99.90
57552;DHT22;43379;48.160;14.036;2023-04-24T14:46:41;15.60;99.90
57552;DHT22;43379;48.160;14.036;2023-04-24T14:49:08;15.40;99.90
57552;DHT22;43379;48.160;14.036;2023-04-24T14:51:36;15.40;99.90
57552;DHT22;43379;48.160;14.036;2023-04-24T14:54:01;15.50;99.90
57552;DHT22;43379;48.160;14.036;2023-04-24T14:56:27;15.30;99.90
57552;DHT22;43379;48.160;14.036;2023-04-24T14:58:53;15.30;99.90
57552;DHT22;43379;48.160;14.036;2023-04-24T15:01:18;15.10;99.90
57552;DHT22;43379;48.160;14.036;2023-04-24T15:03:44;15.10;99.90
57552;DHT22;43379;48.160;14.036;2023-04-24T15:06:10;15.10;99.90
57552;DHT22;43379;48.160;14.036;2023-04-24T15:08:36;15.10;99.90
57552;DHT22;43379;48.160;14.036;2023-04-24T15:11:02;15.10;99.90
57552;DHT22;43379;48.160;14.036;2023-04-24T15:13:27;15.10;99.90
57552;DHT22;43379;48.160;14.036;2023-04-24T15:15:53;15.10;99.90
57552;DHT22;43379;48.160;14.036;2023-04-24T15:18:19;15.00;99.90
57552;DHT22;43379;48.160;14.036;2023-04-24T15:20:44;15.00;99.90
57552;DHT22;43379;48.160;14.036;2023-04-24T15:23:11;15.00;99.90
57552;DHT22;43379;48.160;14.036;2023-04-24T15:25:37;15.00;99.90
57552;DHT22;43379;48.160;14.036;2023-04-24T15:28:03;15.00;99.90